Time;durP1;ratioP1;P1;durP2;ratioP2;P2;SDS_P1;SDS_P2;PMS_P1;PMS_P2;Temp;Humidity;BMP_temperature;BMP_pressure;BME280_temperature;BME280_humidity;BME280_pressure;Samples;Min_cycle;Max_cycle;Signal;HPM_P1;HPM_P2
2022/09/30 00:01:41;;;;;;;4.63;2.40;;;;;;;6.64;100.00;97569.78;15287079;19;20007;-78
2022/09/30 00:07:05;;;;;;;3.83;2.28;;;;;;;6.59;100.00;97566.72;15291121;19;20021;-79
2022/09/30 00:12:36;;;;;;;2.45;2.20;;;;;;;6.57;100.00;97574.06;15291444;19;20043;-79
2022/09/30 00:18:03;;;;;;;2.50;2.27;;;;;;;6.43;100.00;97570.94;15285372;19;20011;-79
2022/09/30 00:23:28;;;;;;;2.50;2.20;;;;;;;6.40;100.00;97581.97;15295944;19;20034;-79
2022/09/30 00:28:54;;;;;;;3.00;2.08;;;;;;;6.35;100.00;97578.91;15300968;19;20791;-78
2022/09/30 00:34:22;;;;;;;3.15;2.00;;;;;;;6.26;100.00;97580.69;15293209;19;20050;-79
2022/09/30 00:39:47;;;;;;;2.47;1.80;;;;;;;6.20;100.00;97577.78;15299783;19;20015;-78
2022/09/30 00:45:13;;;;;;;3.20;1.98;;;;;;;6.13;100.00;97581.09;15299516;19;20012;-78
2022/09/30 00:50:44;;;;;;;2.88;2.20;;;;;;;6.07;100.00;97586.22;15304124;19;20007;-78
2022/09/30 00:56:12;;;;;;;3.95;2.10;;;;;;;6.00;100.00;97580.63;15293521;19;20020;-79
2022/09/30 01:01:40;;;;;;;4.60;2.30;;;;;;;5.98;100.00;97591.47;15299239;19;20034;-80
2022/09/30 01:07:11;;;;;;;2.75;2.08;;;;;;;5.96;100.00;97605.94;15293913;19;20056;-79
2022/09/30 01:12:42;;;;;;;3.43;2.40;;;;;;;5.92;100.00;97609.94;15293955;19;20089;-79
2022/09/30 01:18:13;;;;;;;3.50;3.17;;;;;;;5.92;100.00;97604.59;15301813;19;20022;-79
2022/09/30 01:24:17;;;;;;;3.08;2.80;;;;;;;5.93;100.00;97606.28;15297453;19;20003;-78
2022/09/30 01:30:08;;;;;;;2.92;2.60;;;;;;;5.91;100.00;97592.22;15305370;19;20006;-79
2022/09/30 01:35:44;;;;;;;;;;;;;;;5.89;100.00;97592.34;15291176;19;20019;-78
2022/09/30 01:41:13;;;;;;;2.70;2.45;;;;;;;5.86;100.00;97596.16;15302224;19;19921;-78
2022/09/30 01:46:44;;;;;;;2.65;2.40;;;;;;;5.85;100.00;97612.38;15297068;19;20011;-80
2022/09/30 01:52:16;;;;;;;2.65;2.45;;;;;;;5.81;100.00;97619.84;15332176;19;20014;-79
2022/09/30 01:57:45;;;;;;;2.72;2.42;;;;;;;5.80;100.00;97623.53;15320361;19;20460;-79
2022/09/30 02:03:16;;;;;;;3.90;2.80;;;;;;;5.78;100.00;97629.97;15296591;19;20376;-79
2022/09/30 02:08:49;;;;;;;3.40;3.10;;;;;;;5.74;100.00;97632.13;15327392;19;20019;-81
2022/09/30 02:14:21;;;;;;;3.47;3.17;;;;;;;5.72;100.00;97634.09;15356180;19;20014;-78
2022/09/30 02:19:49;;;;;;;4.38;3.80;;;;;;;5.67;100.00;97645.25;15317345;19;20070;-79
2022/09/30 02:25:19;;;;;;;4.40;3.58;;;;;;;5.63;100.00;97630.53;15291744;19;20041;-77
2022/09/30 02:30:49;;;;;;;5.30;2.90;;;;;;;5.59;100.00;97638.97;15293037;19;20045;-79
2022/09/30 02:36:28;;;;;;;4.03;2.55;;;;;;;5.51;100.00;97645.06;15279590;19;20025;-81
2022/09/30 02:42:01;;;;;;;3.25;2.95;;;;;;;5.44;100.00;97650.16;15296268;19;20017;-81
2022/09/30 02:47:51;;;;;;;3.80;2.50;;;;;;;5.39;100.00;97663.09;15314750;19;20033;-82
2022/09/30 02:53:25;;;;;;;4.30;2.90;;;;;;;5.32;100.00;97662.84;15333910;19;20447;-81
2022/09/30 02:58:55;;;;;;;4.40;2.75;;;;;;;5.27;100.00;97658.94;15297543;19;20020;-80
2022/09/30 03:04:24;;;;;;;3.92;3.03;;;;;;;5.21;100.00;97666.56;15292814;19;20042;-80
2022/09/30 03:09:48;;;;;;;4.38;3.70;;;;;;;5.17;100.00;97664.34;15295167;19;20017;-81
2022/09/30 03:15:31;;;;;;;5.03;4.30;;;;;;;5.09;100.00;97668.56;15290259;19;20020;-80
2022/09/30 03:21:12;;;;;;;7.45;4.65;;;;;;;5.06;100.00;97671.50;15309729;19;20022;-80
2022/09/30 03:26:43;;;;;;;4.40;4.00;;;;;;;5.01;100.00;97670.25;15304778;19;20014;-83
2022/09/30 03:32:25;;;;;;;7.13;4.80;;;;;;;4.94;100.00;97684.19;15305846;19;20037;-81
2022/09/30 03:38:09;;;;;;;6.97;5.10;;;;;;;4.93;100.00;97695.03;15286668;19;20014;-81
2022/09/30 03:43:38;;;;;;;6.63;5.07;;;;;;;4.89;100.00;97707.78;15303906;19;20034;-83
2022/09/30 03:49:10;;;;;;;5.85;5.28;;;;;;;4.85;100.00;97709.06;15339333;19;20006;-84
2022/09/30 03:54:45;;;;;;;8.52;6.20;;;;;;;4.85;100.00;97719.75;15351602;19;20014;-84
2022/09/30 04:00:10;;;;;;;6.72;5.45;;;;;;;4.82;100.00;97712.03;15334676;19;20681;-86
2022/09/30 04:05:39;;;;;;;6.45;5.78;;;;;;;4.78;100.00;97710.63;15309941;19;20010;-85
2022/09/30 04:11:04;;;;;;;5.35;4.85;;;;;;;4.75;100.00;97711.75;15306696;19;20022;-82
2022/09/30 04:16:31;;;;;;;5.47;4.60;;;;;;;4.71;100.00;97702.34;15322191;19;20007;-81
2022/09/30 04:21:59;;;;;;;7.22;4.82;;;;;;;4.66;100.00;97709.94;15309121;19;20021;-81
2022/09/30 04:27:24;;;;;;;5.18;4.60;;;;;;;4.62;100.00;97709.38;15303881;19;20029;-85
2022/09/30 04:32:50;;;;;;;5.85;4.97;;;;;;;4.57;100.00;97716.94;15307470;19;20011;-82
2022/09/30 04:38:24;;;;;;;6.57;5.05;;;;;;;4.56;100.00;97725.09;15290700;19;20018;-83
2022/09/30 04:43:50;;;;;;;5.47;4.90;;;;;;;4.54;100.00;97732.41;15306225;19;20035;-83
2022/09/30 04:49:15;;;;;;;7.65;5.20;;;;;;;4.51;100.00;97738.00;15300074;19;20542;-83
2022/09/30 04:54:42;;;;;;;6.93;5.22;;;;;;;4.51;100.00;97741.53;15299296;19;20236;-83
2022/09/30 05:00:08;;;;;;;7.63;6.25;;;;;;;4.54;100.00;97749.22;15306355;19;20026;-81
2022/09/30 05:05:34;;;;;;;7.00;5.75;;;;;;;4.59;100.00;97756.81;15304277;19;20096;-83
2022/09/30 05:11:07;;;;;;;6.10;5.50;;;;;;;4.63;100.00;97766.22;15302032;19;20364;-82
2022/09/30 05:16:32;;;;;;;5.90;5.20;;;;;;;4.66;100.00;97775.78;15293393;19;20088;-81
2022/09/30 05:21:56;;;;;;;5.40;4.90;;;;;;;4.69;100.00;97781.69;15306302;19;20489;-82
2022/09/30 05:27:23;;;;;;;6.55;5.30;;;;;;;4.75;100.00;97773.13;15296372;19;20380;-81
2022/09/30 05:32:48;;;;;;;5.57;4.60;;;;;;;4.78;100.00;97782.66;15293875;19;20574;-82
2022/09/30 05:38:19;;;;;;;5.25;4.38;;;;;;;4.81;100.00;97781.56;15299517;19;20379;-84
2022/09/30 05:43:46;;;;;;;5.00;4.50;;;;;;;4.86;100.00;97793.50;15307648;19;20041;-83
2022/09/30 05:49:11;;;;;;;4.57;3.80;;;;;;;4.87;100.00;97797.00;15299328;19;20140;-80
2022/09/30 05:54:43;;;;;;;4.85;3.80;;;;;;;4.86;100.00;97796.16;15304310;19;20017;-83
2022/09/30 06:00:10;;;;;;;3.78;3.50;;;;;;;4.85;100.00;97801.63;15355951;19;20015;-83
2022/09/30 06:05:35;;;;;;;3.50;3.20;;;;;;;4.84;100.00;97810.63;15297793;19;20010;-78
2022/09/30 06:11:00;;;;;;;4.60;2.80;;;;;;;4.82;100.00;97810.78;15298142;19;20178;-80
2022/09/30 06:16:27;;;;;;;3.67;3.00;;;;;;;4.83;100.00;97827.59;15286663;19;20034;-84
2022/09/30 06:21:52;;;;;;;3.72;3.30;;;;;;;4.83;100.00;97831.13;15338010;19;20018;-78
2022/09/30 06:27:17;;;;;;;3.50;3.20;;;;;;;4.87;100.00;97837.88;15353859;19;20024;-78
2022/09/30 06:32:44;;;;;;;4.50;3.45;;;;;;;4.93;100.00;97845.31;15334713;19;20017;-82
2022/09/30 06:38:17;;;;;;;4.75;3.80;;;;;;;4.99;100.00;97853.78;15305922;19;20023;-81
2022/09/30 06:43:42;;;;;;;6.32;4.55;;;;;;;5.07;100.00;97852.06;15304605;19;20081;-83
2022/09/30 06:49:16;;;;;;;5.60;4.67;;;;;;;5.15;100.00;97858.56;15300897;19;20476;-82
2022/09/30 06:54:42;;;;;;;6.75;4.97;;;;;;;5.23;100.00;97867.53;15299065;19;20014;-80
2022/09/30 07:00:06;;;;;;;5.40;4.90;;;;;;;5.34;100.00;97884.41;15293871;19;20015;-83
2022/09/30 07:05:33;;;;;;;4.85;4.35;;;;;;;5.48;100.00;97891.97;15309834;19;20011;-81
2022/09/30 07:10:58;;;;;;;4.45;3.92;;;;;;;5.59;100.00;97909.69;15290516;19;20078;-82
2022/09/30 07:16:24;;;;;;;4.40;3.40;;;;;;;5.68;100.00;97903.47;15279633;19;20014;-80
2022/09/30 07:21:51;;;;;;;4.28;3.40;;;;;;;5.81;100.00;97905.00;15291832;19;20014;-81
2022/09/30 07:27:16;;;;;;;4.90;3.25;;;;;;;5.91;100.00;97911.16;15286494;19;20006;-81
2022/09/30 07:32:40;;;;;;;3.63;3.25;;;;;;;6.01;100.00;97917.38;15283363;19;20026;-81
2022/09/30 07:38:16;;;;;;;4.88;3.33;;;;;;;6.15;100.00;97915.22;15278627;19;20620;-81
2022/09/30 07:43:45;;;;;;;3.30;3.00;;;;;;;6.27;100.00;97921.25;15285795;19;20021;-81
2022/09/30 07:49:11;;;;;;;3.90;3.28;;;;;;;6.37;100.00;97938.09;15292904;19;20018;-80
2022/09/30 07:54:39;;;;;;;4.32;3.60;;;;;;;6.58;100.00;97950.41;15288355;19;20570;-80
2022/09/30 08:00:07;;;;;;;3.63;3.33;;;;;;;6.72;100.00;97955.28;15297023;19;20018;-81
2022/09/30 08:05:53;;;;;;;5.38;3.50;;;;;;;6.89;100.00;97960.81;15289504;19;20029;-83
2022/09/30 08:11:21;;;;;;;3.95;3.55;;;;;;;7.00;100.00;97968.66;15294823;19;20022;-81
2022/09/30 08:16:46;;;;;;;4.88;3.60;;;;;;;7.24;100.00;97976.13;15302699;19;20366;-81
2022/09/30 08:22:12;;;;;;;4.47;3.17;;;;;;;7.40;100.00;97975.47;15307247;19;20019;-81
2022/09/30 08:27:40;;;;;;;2.90;2.60;;;;;;;7.55;100.00;97961.53;15292931;19;20014;-82
2022/09/30 08:33:06;;;;;;;3.17;2.55;;;;;;;7.70;100.00;97965.34;15292739;19;20494;-81
2022/09/30 08:38:37;;;;;;;3.45;2.40;;;;;;;7.90;100.00;97965.19;15280698;19;20025;-81
2022/09/30 08:44:16;;;;;;;2.70;2.40;;;;;;;8.08;100.00;97956.25;15292107;19;20018;-79
2022/09/30 08:49:52;;;;;;;2.42;1.90;;;;;;;8.25;100.00;97949.13;15300635;19;20014;-79
2022/09/30 08:55:22;;;;;;;3.15;2.20;;;;;;;8.46;100.00;97948.75;15295249;19;20014;-80
2022/09/30 09:00:50;;;;;;;2.03;1.92;;;;;;;8.66;100.00;97943.19;15300641;19;20367;-80
2022/09/30 09:06:24;;;;;;;2.78;2.20;;;;;;;8.92;100.00;97943.16;15305310;19;20022;-80
2022/09/30 09:12:05;;;;;;;2.35;1.80;;;;;;;9.14;100.00;97930.09;15308518;19;20387;-80
2022/09/30 09:17:47;;;;;;;1.90;1.30;;;;;;;9.37;100.00;97908.78;15311608;19;20358;-81
2022/09/30 09:23:32;;;;;;;2.05;1.60;;;;;;;9.59;100.00;97917.19;14794258;19;10000277;-81
2022/09/30 09:29:10;;;;;;;2.42;1.30;;;;;;;9.62;100.00;97906.97;15318099;19;20006;-81
2022/09/30 09:34:40;;;;;;;1.75;1.50;;;;;;;9.80;100.00;97909.50;15318694;19;20078;-81
2022/09/30 09:40:13;;;;;;;2.22;1.00;;;;;;;9.92;100.00;97906.47;15297772;19;20015;-82
2022/09/30 09:45:46;;;;;;;1.20;1.10;;;;;;;10.09;100.00;97912.66;15298962;19;20018;-81
2022/09/30 09:51:23;;;;;;;1.42;1.20;;;;;;;10.24;100.00;97907.41;15299789;19;20022;-81
2022/09/30 09:56:47;;;;;;;2.38;1.10;;;;;;;10.44;100.00;97900.66;15286837;19;20425;-82
2022/09/30 10:07:55;;;;;;;2.53;1.30;;;;;;;10.81;100.00;97905.56;15310913;19;20043;-80
2022/09/30 10:13:23;;;;;;;3.72;1.30;;;;;;;10.95;100.00;97896.72;15307738;19;20023;-81
2022/09/30 10:18:53;;;;;;;1.42;1.30;;;;;;;11.11;100.00;97890.41;15322576;19;20516;-82
2022/09/30 10:24:30;;;;;;;1.80;1.50;;;;;;;11.33;100.00;97901.38;15318247;19;20440;-80
2022/09/30 10:29:55;;;;;;;1.75;1.30;;;;;;;11.47;100.00;97894.38;15311877;19;20051;-83
2022/09/30 10:35:24;;;;;;;1.30;1.20;;;;;;;11.64;100.00;97887.84;15310616;19;20051;-82
2022/09/30 10:40:56;;;;;;;2.25;1.20;;;;;;;11.79;100.00;97892.44;15316903;19;20007;-83
2022/09/30 10:46:25;;;;;;;1.27;0.80;;;;;;;12.11;100.00;97874.28;15308249;19;20016;-82
2022/09/30 10:51:54;;;;;;;1.20;0.82;;;;;;;12.28;100.00;97870.41;15036484;19;5000733;-82
2022/09/30 10:57:25;;;;;;;0.93;0.70;;;;;;;12.36;100.00;97860.50;15310041;19;20014;-79
2022/09/30 11:02:55;;;;;;;1.70;0.95;;;;;;;12.53;100.00;97869.25;15354356;19;20019;-82
2022/09/30 11:08:27;;;;;;;1.25;0.90;;;;;;;12.74;100.00;97863.91;15311947;19;20025;-82
2022/09/30 11:13:58;;;;;;;3.88;0.90;;;;;;;12.93;100.00;97857.06;15310139;19;20011;-81
2022/09/30 11:19:30;;;;;;;2.05;0.90;;;;;;;13.04;100.00;97852.19;15319273;19;20651;-82
2022/09/30 11:24:58;;;;;;;1.43;0.80;;;;;;;13.24;100.00;97853.22;15314696;19;20058;-82
2022/09/30 11:30:40;;;;;;;1.45;0.70;;;;;;;13.25;100.00;97838.69;15350822;19;20006;-80
2022/09/30 11:36:16;;;;;;;1.00;0.68;;;;;;;13.50;100.00;97851.03;15284395;19;20625;-82
2022/09/30 11:41:47;;;;;;;1.17;0.70;;;;;;;13.47;100.00;97846.81;15292129;19;20018;-83
2022/09/30 11:47:35;;;;;;;0.95;0.80;;;;;;;13.63;100.00;97847.59;15301266;19;20086;-82
2022/09/30 11:53:11;;;;;;;2.30;0.68;;;;;;;13.70;100.00;97843.91;15296399;19;20046;-82
2022/09/30 11:58:42;;;;;;;1.52;0.50;;;;;;;13.85;100.00;97838.41;15300854;19;20012;-80
2022/09/30 12:04:14;;;;;;;2.23;0.70;;;;;;;13.91;100.00;97846.78;15300155;19;20465;-83
2022/09/30 12:09:44;;;;;;;0.63;0.45;;;;;;;14.17;100.00;97846.94;15305623;19;20319;-81
2022/09/30 12:15:18;;;;;;;1.65;0.80;;;;;;;14.33;100.00;97850.38;15307033;19;20042;-79
2022/09/30 12:20:49;;;;;;;1.40;0.60;;;;;;;14.47;100.00;97851.28;15315307;19;20324;-84
2022/09/30 12:26:17;;;;;;;1.75;0.70;;;;;;;14.85;100.00;97840.00;15308487;19;20035;-81
2022/09/30 12:32:10;;;;;;;0.65;0.50;;;;;;;14.83;100.00;97850.22;15317328;19;20082;-82
2022/09/30 12:37:57;;;;;;;1.85;0.63;;;;;;;14.85;100.00;97853.56;15304227;19;20011;-83
2022/09/30 12:43:46;;;;;;;2.17;0.70;;;;;;;15.14;100.00;97845.31;15304286;19;20011;-83
2022/09/30 12:49:18;;;;;;;1.45;0.60;;;;;;;15.54;100.00;97846.22;15309821;19;20086;-83
2022/09/30 12:54:50;;;;;;;0.60;0.50;;;;;;;15.55;100.00;97842.47;15305255;19;20041;-82
2022/09/30 13:00:18;;;;;;;0.93;0.50;;;;;;;15.35;100.00;97842.44;15312491;19;20074;-83
2022/09/30 13:06:05;;;;;;;1.15;0.60;;;;;;;15.68;100.00;97847.06;15308016;19;20067;-83
2022/09/30 13:11:43;;;;;;;1.42;0.68;;;;;;;16.18;100.00;97843.09;15308980;19;20039;-82
2022/09/30 13:17:35;;;;;;;0.73;0.52;;;;;;;16.53;100.00;97836.53;15306253;19;20018;-82
2022/09/30 13:23:00;;;;;;;1.60;0.70;;;;;;;16.57;93.75;97837.78;15302620;19;20321;-82
2022/09/30 13:28:45;;;;;;;0.80;0.40;;;;;;;16.63;100.00;97826.88;15300475;19;20477;-81
2022/09/30 13:34:14;;;;;;;1.10;0.50;;;;;;;17.08;95.08;97844.28;15300649;19;20011;-82
2022/09/30 13:39:51;;;;;;;0.90;0.52;;;;;;;16.83;100.00;97842.28;15306084;19;20010;-82
2022/09/30 13:45:23;;;;;;;1.08;0.50;;;;;;;16.36;95.08;97841.59;15298372;19;20015;-82
2022/09/30 13:50:53;;;;;;;2.88;0.60;;;;;;;16.22;100.00;97847.06;15304884;19;20014;-81
2022/09/30 13:56:28;;;;;;;0.82;0.50;;;;;;;15.74;100.00;97847.28;15298798;19;20022;-82
2022/09/30 14:02:33;;;;;;;1.05;0.55;;;;;;;15.46;100.00;97842.88;15306527;19;20041;-82
2022/09/30 14:08:15;;;;;;;1.40;0.60;;;;;;;15.49;100.00;97842.44;15301745;19;20028;-83
2022/09/30 14:13:49;;;;;;;0.85;0.50;;;;;;;15.30;100.00;97855.81;15306865;19;20022;-84
2022/09/30 14:19:34;;;;;;;1.02;0.50;;;;;;;15.20;100.00;97858.06;15293158;19;20019;-83
2022/09/30 14:24:59;;;;;;;1.05;0.50;;;;;;;15.03;100.00;97854.91;15301497;19;20014;-82
2022/09/30 14:30:28;;;;;;;1.45;0.50;;;;;;;15.02;100.00;97858.66;15310377;19;20358;-81
2022/09/30 14:35:56;;;;;;;1.10;0.47;;;;;;;14.87;100.00;97847.97;15303482;19;20011;-85
2022/09/30 14:41:28;;;;;;;0.70;0.45;;;;;;;14.86;100.00;97843.59;15301242;19;20031;-80
2022/09/30 14:46:59;;;;;;;1.80;0.50;;;;;;;14.70;100.00;97850.19;15307171;19;20567;-83
2022/09/30 14:52:46;;;;;;;0.83;0.47;;;;;;;14.52;100.00;97850.72;15307102;19;20029;-83
2022/09/30 14:58:29;;;;;;;3.60;0.70;;;;;;;14.43;100.00;97853.56;15306328;19;20277;-80
2022/09/30 15:03:59;;;;;;;0.93;0.52;;;;;;;14.78;100.00;97850.84;15301447;19;20475;-82
2022/09/30 15:09:31;;;;;;;2.45;0.50;;;;;;;14.84;100.00;97851.06;15308174;19;20015;-80
2022/09/30 15:14:57;;;;;;;1.38;0.70;;;;;;;15.27;100.00;97855.38;15299521;19;20347;-80
2022/09/30 15:20:31;;;;;;;1.67;0.65;;;;;;;15.36;100.00;97846.81;15306309;19;20015;-82
2022/09/30 15:26:10;;;;;;;1.90;0.80;;;;;;;15.65;100.00;97852.91;15334485;19;20010;-80
2022/09/30 15:31:36;;;;;;;0.80;0.50;;;;;;;16.20;100.00;97854.56;15335742;19;20031;-80
2022/09/30 15:37:10;;;;;;;1.25;0.60;;;;;;;16.53;100.00;97861.81;15291619;19;20034;-81
2022/09/30 15:42:43;;;;;;;0.77;0.60;;;;;;;16.65;100.00;97859.28;15318341;19;20010;-82
2022/09/30 15:48:09;;;;;;;1.38;0.57;;;;;;;16.93;100.00;97853.53;15359698;19;20035;-84
2022/09/30 15:53:50;;;;;;;0.50;0.50;;;;;;;17.23;100.00;97852.97;15296861;19;20046;-83
2022/09/30 15:59:21;;;;;;;0.70;0.40;;;;;;;17.47;100.00;97853.22;15295520;19;20381;-82
2022/09/30 16:04:54;;;;;;;1.23;0.68;;;;;;;17.67;100.00;97858.53;15296157;19;20665;-81
2022/09/30 16:10:29;;;;;;;0.93;0.50;;;;;;;17.75;100.00;97854.72;15292682;19;20642;-81
2022/09/30 16:16:00;;;;;;;0.85;0.50;;;;;;;17.60;100.00;97852.31;15260630;19;20010;-83
2022/09/30 16:21:55;;;;;;;0.63;0.60;;;;;;;17.69;100.00;97866.50;15291555;19;20476;-85
2022/09/30 16:27:31;;;;;;;2.30;0.50;;;;;;;17.49;100.00;97861.22;15285835;19;20031;-84
2022/09/30 16:33:00;;;;;;;0.60;0.40;;;;;;;17.12;100.00;97867.25;15295478;19;20021;-82
2022/09/30 16:38:27;;;;;;;2.20;0.70;;;;;;;16.84;100.00;97868.44;15285225;19;20015;-81
2022/09/30 16:43:54;;;;;;;1.85;0.60;;;;;;;16.62;100.00;97868.72;15285889;19;20011;-84
2022/09/30 16:49:22;;;;;;;0.70;0.52;;;;;;;16.37;100.00;97881.31;15291627;19;20011;-84
2022/09/30 16:54:47;;;;;;;1.70;0.80;;;;;;;15.94;100.00;97878.00;15286158;19;20038;-83
2022/09/30 17:00:17;;;;;;;1.65;0.80;;;;;;;15.59;100.00;97880.88;15290813;19;20022;-82
2022/09/30 17:05:53;;;;;;;1.30;0.80;;;;;;;15.25;100.00;97880.84;15291781;19;20543;-83
2022/09/30 17:11:19;;;;;;;1.70;1.10;;;;;;;14.89;100.00;97889.25;15316888;19;20011;-82
2022/09/30 17:16:51;;;;;;;1.95;0.90;;;;;;;14.54;100.00;97900.09;15298430;19;20007;-83
2022/09/30 17:22:19;;;;;;;1.88;0.90;;;;;;;14.12;100.00;97906.31;15305498;19;20026;-84
2022/09/30 17:27:43;;;;;;;2.45;1.05;;;;;;;13.73;100.00;97904.94;15301279;19;20338;-84
2022/09/30 17:33:09;;;;;;;2.00;0.90;;;;;;;13.51;100.00;97909.53;15312156;19;20031;-83
2022/09/30 17:38:35;;;;;;;2.38;1.23;;;;;;;13.24;100.00;97906.50;15311487;19;20021;-85
2022/09/30 17:44:01;;;;;;;4.38;1.20;;;;;;;12.93;100.00;97904.91;15309505;19;20064;-83
2022/09/30 17:49:26;;;;;;;4.00;1.40;;;;;;;12.44;100.00;97907.19;15314615;19;20090;-83
2022/09/30 17:54:54;;;;;;;3.53;1.05;;;;;;;12.17;100.00;97904.09;15316409;19;20067;-82
2022/09/30 18:00:20;;;;;;;2.63;0.90;;;;;;;12.05;100.00;97891.22;15313220;19;20017;-82
2022/09/30 18:05:45;;;;;;;2.33;1.10;;;;;;;11.85;100.00;97905.19;15307167;19;20062;-83
2022/09/30 18:11:13;;;;;;;1.90;0.90;;;;;;;11.70;100.00;97905.97;15313745;19;20585;-83
2022/09/30 18:16:41;;;;;;;1.52;0.90;;;;;;;11.46;100.00;97895.41;15295404;19;20022;-83
2022/09/30 18:22:05;;;;;;;2.15;1.00;;;;;;;11.22;100.00;97908.88;15295615;19;20028;-82
2022/09/30 18:27:33;;;;;;;1.80;0.90;;;;;;;11.08;100.00;97901.53;15309917;19;20083;-83
2022/09/30 18:33:00;;;;;;;3.15;1.00;;;;;;;10.92;100.00;97918.63;15308411;19;20022;-83
2022/09/30 18:38:26;;;;;;;1.80;1.00;;;;;;;10.83;100.00;97912.44;15270621;19;20018;-81
2022/09/30 18:44:01;;;;;;;3.15;1.13;;;;;;;10.73;100.00;97909.97;15272028;19;20017;-81
2022/09/30 18:49:26;;;;;;;1.67;0.90;;;;;;;10.57;100.00;97920.81;15305541;19;20383;-81
2022/09/30 18:54:53;;;;;;;1.15;0.98;;;;;;;10.35;100.00;97930.44;15308619;19;20010;-83
2022/09/30 19:00:21;;;;;;;1.25;1.00;;;;;;;10.15;100.00;97930.81;15306629;19;20014;-82
2022/09/30 19:05:53;;;;;;;1.65;1.10;;;;;;;10.01;100.00;97927.78;15304000;19;20014;-83
2022/09/30 19:11:23;;;;;;;1.85;1.20;;;;;;;9.99;100.00;97934.34;15315840;19;20360;-82
2022/09/30 19:16:43;;;;;;;2.03;0.95;;;;;;;9.91;100.00;97929.81;15331715;19;20023;-82
2022/09/30 19:22:09;;;;;;;2.90;1.20;;;;;;;9.86;100.00;97935.72;15324495;19;20017;-82
2022/09/30 19:27:34;;;;;;;1.27;1.17;;;;;;;9.75;100.00;97945.97;15300908;19;20031;-83
2022/09/30 19:33:02;;;;;;;2.58;1.10;;;;;;;9.65;100.00;97933.50;15301170;19;20023;-78
2022/09/30 19:38:29;;;;;;;2.03;1.30;;;;;;;9.62;100.00;97943.78;15295602;19;20010;-80
2022/09/30 19:43:55;;;;;;;1.67;1.10;;;;;;;9.49;100.00;97944.28;15297739;19;20010;-80
2022/09/30 19:49:23;;;;;;;2.47;1.10;;;;;;;9.42;100.00;97946.78;15299142;19;20078;-79
2022/09/30 19:54:49;;;;;;;1.67;1.35;;;;;;;9.37;100.00;97949.13;15291808;19;20022;-81
2022/09/30 20:00:27;;;;;;;1.25;1.10;;;;;;;9.29;100.00;97954.50;15291536;19;20011;-79
2022/09/30 20:06:05;;;;;;;2.20;1.10;;;;;;;9.20;100.00;97953.63;15284137;19;20690;-79
2022/09/30 20:11:32;;;;;;;1.85;1.20;;;;;;;9.10;100.00;97943.03;15291648;19;20480;-81
2022/09/30 20:16:56;;;;;;;3.17;1.15;;;;;;;9.00;100.00;97945.84;15292927;19;20010;-78
2022/09/30 20:22:24;;;;;;;2.38;1.17;;;;;;;8.86;100.00;97936.56;15291857;19;20015;-79
2022/09/30 20:27:49;;;;;;;1.88;1.10;;;;;;;8.81;100.00;97940.75;15301150;19;20106;-77
2022/09/30 20:33:16;;;;;;;2.08;1.30;;;;;;;8.74;100.00;97936.00;15346210;19;20046;-81
2022/09/30 20:38:46;;;;;;;2.72;1.10;;;;;;;8.64;100.00;97940.66;15313716;19;20022;-79
2022/09/30 20:44:14;;;;;;;3.08;1.10;;;;;;;8.55;100.00;97929.03;15299367;19;20019;-79
2022/09/30 20:49:39;;;;;;;2.10;1.10;;;;;;;8.53;100.00;97922.16;15299357;19;20010;-78
2022/09/30 20:55:08;;;;;;;3.03;1.25;;;;;;;8.46;100.00;97921.94;15295913;19;20025;-78
2022/09/30 21:00:33;;;;;;;2.38;1.30;;;;;;;8.43;100.00;97919.56;15296816;19;20366;-79
2022/09/30 21:06:05;;;;;;;2.33;1.20;;;;;;;8.42;100.00;97915.19;15302254;19;20015;-78
2022/09/30 21:11:33;;;;;;;;;;;;;;;8.38;100.00;97928.09;15304712;19;20017;-79
2022/09/30 21:16:57;;;;;;;1.45;1.10;;;;;;;8.32;100.00;97924.19;15321048;19;19923;-79
2022/09/30 21:22:21;;;;;;;1.42;1.10;;;;;;;8.28;100.00;97930.03;15323067;19;20035;-79
2022/09/30 21:27:54;;;;;;;2.33;1.30;;;;;;;8.17;100.00;97934.69;15324241;19;20083;-78
2022/09/30 21:33:18;;;;;;;1.83;1.20;;;;;;;8.09;100.00;97947.19;15325488;19;20010;-79
2022/09/30 21:38:43;;;;;;;1.63;1.27;;;;;;;8.07;100.00;97944.69;15330653;19;20018;-79
2022/09/30 21:44:11;;;;;;;3.15;1.30;;;;;;;8.10;100.00;97959.63;15318954;19;20011;-81
2022/09/30 21:49:37;;;;;;;3.65;1.20;;;;;;;8.08;100.00;97957.09;15315820;19;20038;-80
2022/09/30 21:55:05;;;;;;;2.45;1.20;;;;;;;8.13;100.00;97953.94;15304606;19;20010;-79
2022/09/30 22:00:33;;;;;;;4.50;1.40;;;;;;;8.10;100.00;97959.63;15307392;19;20078;-81
2022/09/30 22:05:59;;;;;;;2.63;1.30;;;;;;;8.08;100.00;97957.09;15299556;19;20015;-80
2022/09/30 22:11:28;;;;;;;1.55;1.23;;;;;;;8.07;100.00;97952.72;15307779;19;20015;-79
2022/09/30 22:16:56;;;;;;;1.73;1.23;;;;;;;8.04;100.00;97954.88;15311114;19;20006;-79
2022/09/30 22:22:21;;;;;;;2.17;1.45;;;;;;;8.01;100.00;97953.34;15313049;19;20035;-79
2022/09/30 22:27:45;;;;;;;3.00;1.50;;;;;;;8.01;100.00;97956.03;15323196;19;20019;-80
2022/09/30 22:44:35;;;;;;;1.70;1.20;;;;;;;8.05;100.00;97961.94;15345435;19;20037;-79
2022/09/30 22:50:03;;;;;;;2.55;1.38;;;;;;;8.09;100.00;97947.19;15294110;19;20014;-79
2022/09/30 22:55:30;;;;;;;3.35;1.50;;;;;;;8.04;100.00;97944.97;15298582;19;20030;-78
2022/09/30 23:01:03;;;;;;;2.10;1.33;;;;;;;8.01;100.00;97939.94;15303142;19;20021;-79
2022/09/30 23:06:30;;;;;;;2.40;1.40;;;;;;;7.98;100.00;97929.53;15307696;19;20010;-79
2022/09/30 23:11:56;;;;;;;3.17;1.30;;;;;;;7.96;100.00;97929.66;15312427;19;20013;-79
2022/09/30 23:17:21;;;;;;;1.88;1.30;;;;;;;7.91;100.00;97923.94;15308949;19;20014;-78
2022/09/30 23:22:49;;;;;;;1.73;1.30;;;;;;;7.87;100.00;97935.97;15301180;19;20132;-78
2022/09/30 23:28:13;;;;;;;2.83;1.30;;;;;;;7.80;100.00;97929.56;15301753;19;20015;-79
2022/09/30 23:33:38;;;;;;;1.33;1.20;;;;;;;7.77;100.00;97928.00;15302154;19;20386;-79
2022/09/30 23:39:11;;;;;;;2.65;1.10;;;;;;;7.75;100.00;97929.19;15297281;19;20479;-78
2022/09/30 23:44:35;;;;;;;1.63;1.20;;;;;;;7.72;100.00;97931.16;15298432;19;20022;-78
2022/09/30 23:49:59;;;;;;;1.55;1.02;;;;;;;7.71;100.00;97923.28;15300228;19;20014;-79
2022/09/30 23:55:27;;;;;;;2.38;1.20;;;;;;;7.68;100.00;97919.09;15297982;19;20117;-79
